sensor_id;sensor_type;location;lat;lon;timestamp;P1;durP1;ratioP1;P2;durP2;ratioP2
30862;SDS011;17573;55.922;37.540;2023-03-04T00:01:38;15.60;;;7.30;;
30862;SDS011;17573;55.922;37.540;2023-03-04T00:04:03;30.33;;;8.68;;
30862;SDS011;17573;55.922;37.540;2023-03-04T00:06:29;24.02;;;7.07;;
30862;SDS011;17573;55.922;37.540;2023-03-04T00:08:55;15.63;;;7.95;;
30862;SDS011;17573;55.922;37.540;2023-03-04T00:11:21;16.05;;;8.38;;
30862;SDS011;17573;55.922;37.540;2023-03-04T00:13:47;23.05;;;7.70;;
30862;SDS011;17573;55.922;37.540;2023-03-04T00:16:14;21.45;;;8.27;;
30862;SDS011;17573;55.922;37.540;2023-03-04T00:18:40;15.38;;;7.85;;
30862;SDS011;17573;55.922;37.540;2023-03-04T00:21:06;25.77;;;8.20;;
30862;SDS011;17573;55.922;37.540;2023-03-04T00:23:31;12.90;;;7.53;;
30862;SDS011;17573;55.922;37.540;2023-03-04T00:25:57;22.73;;;8.93;;
30862;SDS011;17573;55.922;37.540;2023-03-04T00:28:23;12.98;;;7.95;;
30862;SDS011;17573;55.922;37.540;2023-03-04T00:30:49;20.83;;;8.20;;
30862;SDS011;17573;55.922;37.540;2023-03-04T00:33:15;25.42;;;8.18;;
30862;SDS011;17573;55.922;37.540;2023-03-04T00:35:41;13.15;;;8.30;;
30862;SDS011;17573;55.922;37.540;2023-03-04T00:38:07;14.95;;;8.10;;
30862;SDS011;17573;55.922;37.540;2023-03-04T00:40:34;14.25;;;9.25;;
30862;SDS011;17573;55.922;37.540;2023-03-04T00:42:59;13.50;;;8.02;;
30862;SDS011;17573;55.922;37.540;2023-03-04T00:45:25;15.38;;;8.45;;
30862;SDS011;17573;55.922;37.540;2023-03-04T00:47:51;12.98;;;7.40;;
30862;SDS011;17573;55.922;37.540;2023-03-04T00:50:17;21.35;;;8.10;;
30862;SDS011;17573;55.922;37.540;2023-03-04T00:52:43;11.73;;;7.63;;
30862;SDS011;17573;55.922;37.540;2023-03-04T00:55:09;11.45;;;7.30;;
30862;SDS011;17573;55.922;37.540;2023-03-04T00:57:35;8.30;;;6.88;;
30862;SDS011;17573;55.922;37.540;2023-03-04T01:00:00;17.52;;;7.53;;
30862;SDS011;17573;55.922;37.540;2023-03-04T01:02:26;15.77;;;7.82;;
30862;SDS011;17573;55.922;37.540;2023-03-04T01:04:52;14.02;;;6.95;;
30862;SDS011;17573;55.922;37.540;2023-03-04T01:07:18;11.38;;;6.75;;
30862;SDS011;17573;55.922;37.540;2023-03-04T01:09:44;11.95;;;8.18;;
30862;SDS011;17573;55.922;37.540;2023-03-04T01:12:10;16.10;;;7.57;;
30862;SDS011;17573;55.922;37.540;2023-03-04T01:14:36;10.73;;;7.40;;
30862;SDS011;17573;55.922;37.540;2023-03-04T01:17:02;13.32;;;7.70;;
30862;SDS011;17573;55.922;37.540;2023-03-04T01:19:28;9.10;;;5.90;;
30862;SDS011;17573;55.922;37.540;2023-03-04T01:21:54;12.18;;;7.10;;
30862;SDS011;17573;55.922;37.540;2023-03-04T01:24:20;15.75;;;8.27;;
30862;SDS011;17573;55.922;37.540;2023-03-04T01:26:46;9.05;;;6.35;;
30862;SDS011;17573;55.922;37.540;2023-03-04T01:29:13;17.85;;;8.32;;
30862;SDS011;17573;55.922;37.540;2023-03-04T01:31:39;12.60;;;7.35;;
30862;SDS011;17573;55.922;37.540;2023-03-04T01:34:04;10.85;;;7.28;;
30862;SDS011;17573;55.922;37.540;2023-03-04T01:36:30;19.00;;;7.78;;
30862;SDS011;17573;55.922;37.540;2023-03-04T01:38:56;16.48;;;6.22;;
30862;SDS011;17573;55.922;37.540;2023-03-04T01:41:24;13.63;;;7.35;;
30862;SDS011;17573;55.922;37.540;2023-03-04T01:43:50;14.68;;;7.82;;
30862;SDS011;17573;55.922;37.540;2023-03-04T01:46:16;18.52;;;8.13;;
30862;SDS011;17573;55.922;37.540;2023-03-04T01:48:42;12.63;;;7.55;;
30862;SDS011;17573;55.922;37.540;2023-03-04T01:51:16;11.27;;;6.90;;
30862;SDS011;17573;55.922;37.540;2023-03-04T01:53:43;11.05;;;7.35;;
30862;SDS011;17573;55.922;37.540;2023-03-04T01:56:15;15.38;;;8.73;;
30862;SDS011;17573;55.922;37.540;2023-03-04T01:58:44;16.92;;;7.35;;
30862;SDS011;17573;55.922;37.540;2023-03-04T02:01:10;21.13;;;7.97;;
30862;SDS011;17573;55.922;37.540;2023-03-04T02:03:37;15.05;;;7.32;;
30862;SDS011;17573;55.922;37.540;2023-03-04T02:06:03;15.88;;;6.70;;
30862;SDS011;17573;55.922;37.540;2023-03-04T02:08:29;14.48;;;7.93;;
30862;SDS011;17573;55.922;37.540;2023-03-04T02:10:55;16.52;;;8.63;;
30862;SDS011;17573;55.922;37.540;2023-03-04T02:13:21;22.67;;;8.50;;
30862;SDS011;17573;55.922;37.540;2023-03-04T02:15:47;12.25;;;8.38;;
30862;SDS011;17573;55.922;37.540;2023-03-04T02:18:17;13.88;;;7.82;;
30862;SDS011;17573;55.922;37.540;2023-03-04T02:26:24;28.48;;;10.10;;
30862;SDS011;17573;55.922;37.540;2023-03-04T02:28:52;44.92;;;10.48;;
30862;SDS011;17573;55.922;37.540;2023-03-04T02:34:06;11.85;;;8.45;;
30862;SDS011;17573;55.922;37.540;2023-03-04T02:36:36;17.60;;;9.93;;
30862;SDS011;17573;55.922;37.540;2023-03-04T02:39:04;15.18;;;8.90;;
30862;SDS011;17573;55.922;37.540;2023-03-04T02:41:35;15.55;;;8.95;;
30862;SDS011;17573;55.922;37.540;2023-03-04T02:44:00;17.05;;;9.68;;
30862;SDS011;17573;55.922;37.540;2023-03-04T02:46:27;21.95;;;10.35;;
30862;SDS011;17573;55.922;37.540;2023-03-04T02:48:52;27.73;;;10.15;;
30862;SDS011;17573;55.922;37.540;2023-03-04T02:51:18;17.77;;;11.18;;
30862;SDS011;17573;55.922;37.540;2023-03-04T02:53:44;22.75;;;11.68;;
30862;SDS011;17573;55.922;37.540;2023-03-04T02:56:11;19.15;;;11.60;;
30862;SDS011;17573;55.922;37.540;2023-03-04T02:58:37;23.17;;;11.85;;
30862;SDS011;17573;55.922;37.540;2023-03-04T03:01:06;22.30;;;12.25;;
30862;SDS011;17573;55.922;37.540;2023-03-04T03:03:32;22.05;;;11.93;;
30862;SDS011;17573;55.922;37.540;2023-03-04T03:05:58;35.38;;;11.82;;
30862;SDS011;17573;55.922;37.540;2023-03-04T03:08:25;52.65;;;15.15;;
30862;SDS011;17573;55.922;37.540;2023-03-04T03:10:52;53.13;;;13.18;;
30862;SDS011;17573;55.922;37.540;2023-03-04T03:13:18;45.35;;;12.93;;
30862;SDS011;17573;55.922;37.540;2023-03-04T03:15:44;41.53;;;13.20;;
30862;SDS011;17573;55.922;37.540;2023-03-04T03:20:55;30.88;;;12.88;;
30862;SDS011;17573;55.922;37.540;2023-03-04T03:23:21;21.45;;;9.13;;
30862;SDS011;17573;55.922;37.540;2023-03-04T03:25:47;26.50;;;11.65;;
30862;SDS011;17573;55.922;37.540;2023-03-04T03:28:12;17.10;;;11.20;;
30862;SDS011;17573;55.922;37.540;2023-03-04T03:30:38;21.67;;;10.43;;
30862;SDS011;17573;55.922;37.540;2023-03-04T03:33:05;25.48;;;10.10;;
30862;SDS011;17573;55.922;37.540;2023-03-04T03:35:31;17.95;;;11.60;;
30862;SDS011;17573;55.922;37.540;2023-03-04T03:37:57;15.40;;;11.25;;
30862;SDS011;17573;55.922;37.540;2023-03-04T03:40:23;26.08;;;12.13;;
30862;SDS011;17573;55.922;37.540;2023-03-04T03:42:49;28.08;;;12.05;;
30862;SDS011;17573;55.922;37.540;2023-03-04T03:45:14;25.98;;;10.52;;
30862;SDS011;17573;55.922;37.540;2023-03-04T03:47:40;30.65;;;13.50;;
30862;SDS011;17573;55.922;37.540;2023-03-04T03:50:06;15.40;;;8.95;;
30862;SDS011;17573;55.922;37.540;2023-03-04T03:52:32;18.58;;;9.55;;
30862;SDS011;17573;55.922;37.540;2023-03-04T03:54:58;19.98;;;11.75;;
30862;SDS011;17573;55.922;37.540;2023-03-04T03:57:26;20.98;;;9.70;;
30862;SDS011;17573;55.922;37.540;2023-03-04T03:59:53;17.13;;;11.10;;
30862;SDS011;17573;55.922;37.540;2023-03-04T04:02:19;22.80;;;12.52;;
30862;SDS011;17573;55.922;37.540;2023-03-04T04:04:46;17.42;;;12.07;;
30862;SDS011;17573;55.922;37.540;2023-03-04T04:07:13;23.63;;;9.73;;
30862;SDS011;17573;55.922;37.540;2023-03-04T04:09:39;18.45;;;10.23;;
30862;SDS011;17573;55.922;37.540;2023-03-04T04:12:05;27.55;;;11.10;;
30862;SDS011;17573;55.922;37.540;2023-03-04T04:14:31;24.73;;;11.98;;
30862;SDS011;17573;55.922;37.540;2023-03-04T04:16:58;15.15;;;10.25;;
30862;SDS011;17573;55.922;37.540;2023-03-04T04:19:24;17.00;;;9.93;;
30862;SDS011;17573;55.922;37.540;2023-03-04T04:21:50;16.77;;;8.82;;
30862;SDS011;17573;55.922;37.540;2023-03-04T04:24:15;13.10;;;8.48;;
30862;SDS011;17573;55.922;37.540;2023-03-04T04:26:41;24.13;;;11.00;;
30862;SDS011;17573;55.922;37.540;2023-03-04T04:29:08;19.27;;;9.80;;
30862;SDS011;17573;55.922;37.540;2023-03-04T04:31:34;17.73;;;8.80;;
30862;SDS011;17573;55.922;37.540;2023-03-04T04:34:00;21.30;;;8.07;;
30862;SDS011;17573;55.922;37.540;2023-03-04T04:36:26;17.77;;;9.45;;
30862;SDS011;17573;55.922;37.540;2023-03-04T04:38:52;17.52;;;9.75;;
30862;SDS011;17573;55.922;37.540;2023-03-04T04:41:22;19.58;;;9.10;;
30862;SDS011;17573;55.922;37.540;2023-03-04T04:43:50;15.45;;;8.85;;
30862;SDS011;17573;55.922;37.540;2023-03-04T04:46:16;20.38;;;8.90;;
30862;SDS011;17573;55.922;37.540;2023-03-04T04:48:42;24.65;;;9.82;;
30862;SDS011;17573;55.922;37.540;2023-03-04T04:51:09;25.20;;;8.40;;
30862;SDS011;17573;55.922;37.540;2023-03-04T04:53:35;11.07;;;8.65;;
30862;SDS011;17573;55.922;37.540;2023-03-04T04:56:12;11.57;;;8.68;;
30862;SDS011;17573;55.922;37.540;2023-03-04T04:58:39;14.05;;;8.45;;
30862;SDS011;17573;55.922;37.540;2023-03-04T05:01:05;23.63;;;9.77;;
30862;SDS011;17573;55.922;37.540;2023-03-04T05:03:32;21.63;;;10.18;;
30862;SDS011;17573;55.922;37.540;2023-03-04T05:05:58;26.50;;;11.43;;
30862;SDS011;17573;55.922;37.540;2023-03-04T05:08:24;26.60;;;11.02;;
30862;SDS011;17573;55.922;37.540;2023-03-04T05:10:51;26.75;;;10.55;;
30862;SDS011;17573;55.922;37.540;2023-03-04T05:13:17;30.30;;;10.82;;
30862;SDS011;17573;55.922;37.540;2023-03-04T05:15:44;20.25;;;9.75;;
30862;SDS011;17573;55.922;37.540;2023-03-04T05:18:10;15.98;;;8.57;;
30862;SDS011;17573;55.922;37.540;2023-03-04T05:20:36;16.95;;;10.30;;
30862;SDS011;17573;55.922;37.540;2023-03-04T05:23:02;22.10;;;9.70;;
30862;SDS011;17573;55.922;37.540;2023-03-04T05:25:28;13.50;;;7.50;;
30862;SDS011;17573;55.922;37.540;2023-03-04T05:27:53;13.98;;;9.20;;
30862;SDS011;17573;55.922;37.540;2023-03-04T05:30:19;14.82;;;9.07;;
30862;SDS011;17573;55.922;37.540;2023-03-04T05:32:45;12.35;;;8.07;;
30862;SDS011;17573;55.922;37.540;2023-03-04T05:35:11;24.10;;;9.43;;
30862;SDS011;17573;55.922;37.540;2023-03-04T05:37:37;12.40;;;7.90;;
30862;SDS011;17573;55.922;37.540;2023-03-04T05:40:03;15.27;;;8.77;;
30862;SDS011;17573;55.922;37.540;2023-03-04T05:42:29;12.43;;;8.57;;
30862;SDS011;17573;55.922;37.540;2023-03-04T05:44:55;11.93;;;8.43;;
30862;SDS011;17573;55.922;37.540;2023-03-04T05:47:21;13.40;;;9.68;;
30862;SDS011;17573;55.922;37.540;2023-03-04T05:49:47;14.98;;;10.15;;
30862;SDS011;17573;55.922;37.540;2023-03-04T05:52:13;17.98;;;10.60;;
30862;SDS011;17573;55.922;37.540;2023-03-04T05:54:40;31.85;;;13.13;;
30862;SDS011;17573;55.922;37.540;2023-03-04T05:57:05;18.27;;;9.77;;
30862;SDS011;17573;55.922;37.540;2023-03-04T05:59:31;24.73;;;10.10;;
30862;SDS011;17573;55.922;37.540;2023-03-04T06:01:57;13.00;;;8.25;;
30862;SDS011;17573;55.922;37.540;2023-03-04T06:04:23;22.98;;;9.30;;
30862;SDS011;17573;55.922;37.540;2023-03-04T06:06:49;25.30;;;9.60;;
30862;SDS011;17573;55.922;37.540;2023-03-04T06:09:15;30.10;;;11.88;;
30862;SDS011;17573;55.922;37.540;2023-03-04T06:11:41;27.52;;;10.60;;
30862;SDS011;17573;55.922;37.540;2023-03-04T06:14:07;21.05;;;10.20;;
30862;SDS011;17573;55.922;37.540;2023-03-04T06:16:33;22.65;;;9.05;;
30862;SDS011;17573;55.922;37.540;2023-03-04T06:18:59;28.58;;;10.07;;
30862;SDS011;17573;55.922;37.540;2023-03-04T06:21:24;22.67;;;9.77;;
30862;SDS011;17573;55.922;37.540;2023-03-04T06:23:50;15.63;;;8.65;;
30862;SDS011;17573;55.922;37.540;2023-03-04T06:26:16;30.27;;;10.57;;
30862;SDS011;17573;55.922;37.540;2023-03-04T06:28:42;26.35;;;9.30;;
30862;SDS011;17573;55.922;37.540;2023-03-04T06:31:08;38.42;;;9.10;;
30862;SDS011;17573;55.922;37.540;2023-03-04T06:33:34;12.82;;;8.75;;
30862;SDS011;17573;55.922;37.540;2023-03-04T06:36:00;20.23;;;9.10;;
30862;SDS011;17573;55.922;37.540;2023-03-04T06:38:26;15.40;;;9.02;;
30862;SDS011;17573;55.922;37.540;2023-03-04T06:40:52;14.98;;;9.93;;
30862;SDS011;17573;55.922;37.540;2023-03-04T06:43:18;19.70;;;9.27;;
30862;SDS011;17573;55.922;37.540;2023-03-04T06:45:43;19.27;;;9.15;;
30862;SDS011;17573;55.922;37.540;2023-03-04T06:48:10;17.35;;;10.02;;
30862;SDS011;17573;55.922;37.540;2023-03-04T06:50:36;20.67;;;10.43;;
30862;SDS011;17573;55.922;37.540;2023-03-04T06:53:04;17.00;;;9.52;;
30862;SDS011;17573;55.922;37.540;2023-03-04T06:55:30;18.23;;;9.90;;
30862;SDS011;17573;55.922;37.540;2023-03-04T06:57:55;17.67;;;10.32;;
30862;SDS011;17573;55.922;37.540;2023-03-04T07:00:21;17.92;;;10.77;;
30862;SDS011;17573;55.922;37.540;2023-03-04T07:02:48;23.35;;;11.07;;
30862;SDS011;17573;55.922;37.540;2023-03-04T07:05:15;22.40;;;11.60;;
30862;SDS011;17573;55.922;37.540;2023-03-04T07:07:40;28.25;;;12.02;;
30862;SDS011;17573;55.922;37.540;2023-03-04T07:10:06;25.27;;;12.80;;
30862;SDS011;17573;55.922;37.540;2023-03-04T07:12:34;38.20;;;14.68;;
30862;SDS011;17573;55.922;37.540;2023-03-04T07:15:01;16.75;;;9.75;;
30862;SDS011;17573;55.922;37.540;2023-03-04T07:17:29;9.75;;;8.02;;
30862;SDS011;17573;55.922;37.540;2023-03-04T07:19:55;15.50;;;9.80;;
30862;SDS011;17573;55.922;37.540;2023-03-04T07:22:21;16.65;;;8.93;;
30862;SDS011;17573;55.922;37.540;2023-03-04T07:24:47;15.73;;;10.45;;
30862;SDS011;17573;55.922;37.540;2023-03-04T07:27:13;14.30;;;9.57;;
30862;SDS011;17573;55.922;37.540;2023-03-04T07:29:39;11.88;;;8.93;;
30862;SDS011;17573;55.922;37.540;2023-03-04T07:32:08;12.38;;;8.90;;
30862;SDS011;17573;55.922;37.540;2023-03-04T07:34:34;11.38;;;8.15;;
30862;SDS011;17573;55.922;37.540;2023-03-04T07:37:00;13.50;;;8.85;;
30862;SDS011;17573;55.922;37.540;2023-03-04T07:39:26;12.73;;;8.50;;
30862;SDS011;17573;55.922;37.540;2023-03-04T07:41:52;10.82;;;6.97;;
30862;SDS011;17573;55.922;37.540;2023-03-04T07:44:18;15.13;;;9.55;;
30862;SDS011;17573;55.922;37.540;2023-03-04T07:46:43;15.27;;;8.90;;
30862;SDS011;17573;55.922;37.540;2023-03-04T07:49:13;14.75;;;8.98;;
30862;SDS011;17573;55.922;37.540;2023-03-04T07:51:39;12.02;;;7.88;;
30862;SDS011;17573;55.922;37.540;2023-03-04T07:54:05;13.68;;;8.95;;
30862;SDS011;17573;55.922;37.540;2023-03-04T07:56:32;9.10;;;7.05;;
30862;SDS011;17573;55.922;37.540;2023-03-04T07:58:58;11.90;;;7.40;;
30862;SDS011;17573;55.922;37.540;2023-03-04T08:01:28;7.95;;;6.93;;
30862;SDS011;17573;55.922;37.540;2023-03-04T08:03:55;12.25;;;8.60;;
30862;SDS011;17573;55.922;37.540;2023-03-04T08:06:21;14.10;;;8.85;;
30862;SDS011;17573;55.922;37.540;2023-03-04T08:08:48;14.35;;;8.25;;
30862;SDS011;17573;55.922;37.540;2023-03-04T08:11:19;16.17;;;7.72;;
30862;SDS011;17573;55.922;37.540;2023-03-04T08:13:45;9.25;;;7.20;;
30862;SDS011;17573;55.922;37.540;2023-03-04T08:16:16;14.73;;;8.90;;
30862;SDS011;17573;55.922;37.540;2023-03-04T08:18:47;12.68;;;7.22;;
30862;SDS011;17573;55.922;37.540;2023-03-04T08:21:15;10.15;;;8.57;;
30862;SDS011;17573;55.922;37.540;2023-03-04T08:23:44;13.55;;;9.68;;
30862;SDS011;17573;55.922;37.540;2023-03-04T08:26:11;11.68;;;8.00;;
30862;SDS011;17573;55.922;37.540;2023-03-04T08:28:39;10.45;;;8.85;;
30862;SDS011;17573;55.922;37.540;2023-03-04T08:31:05;14.23;;;9.32;;
30862;SDS011;17573;55.922;37.540;2023-03-04T08:33:32;9.90;;;5.68;;
30862;SDS011;17573;55.922;37.540;2023-03-04T08:35:58;13.50;;;9.40;;
30862;SDS011;17573;55.922;37.540;2023-03-04T08:38:24;21.42;;;9.60;;
30862;SDS011;17573;55.922;37.540;2023-03-04T08:40:53;18.35;;;9.73;;
30862;SDS011;17573;55.922;37.540;2023-03-04T08:43:20;13.43;;;9.23;;
30862;SDS011;17573;55.922;37.540;2023-03-04T08:45:47;13.60;;;8.30;;
30862;SDS011;17573;55.922;37.540;2023-03-04T08:48:13;14.10;;;9.52;;
30862;SDS011;17573;55.922;37.540;2023-03-04T08:50:39;13.65;;;9.13;;
30862;SDS011;17573;55.922;37.540;2023-03-04T08:53:05;17.05;;;10.27;;
30862;SDS011;17573;55.922;37.540;2023-03-04T08:55:31;16.55;;;9.20;;
30862;SDS011;17573;55.922;37.540;2023-03-04T08:57:56;16.85;;;9.80;;
30862;SDS011;17573;55.922;37.540;2023-03-04T09:00:22;16.23;;;10.25;;
30862;SDS011;17573;55.922;37.540;2023-03-04T09:02:48;17.15;;;8.77;;
30862;SDS011;17573;55.922;37.540;2023-03-04T09:05:14;11.55;;;8.65;;
30862;SDS011;17573;55.922;37.540;2023-03-04T09:07:40;15.98;;;9.10;;
30862;SDS011;17573;55.922;37.540;2023-03-04T09:10:06;13.70;;;8.95;;
30862;SDS011;17573;55.922;37.540;2023-03-04T09:12:32;12.75;;;8.35;;
30862;SDS011;17573;55.922;37.540;2023-03-04T09:14:58;16.75;;;9.20;;
30862;SDS011;17573;55.922;37.540;2023-03-04T09:17:24;10.27;;;6.47;;
30862;SDS011;17573;55.922;37.540;2023-03-04T09:19:50;16.40;;;8.23;;
30862;SDS011;17573;55.922;37.540;2023-03-04T09:22:15;14.50;;;7.38;;
30862;SDS011;17573;55.922;37.540;2023-03-04T09:24:41;15.73;;;7.95;;
30862;SDS011;17573;55.922;37.540;2023-03-04T09:27:07;12.75;;;7.70;;
30862;SDS011;17573;55.922;37.540;2023-03-04T09:29:33;8.80;;;6.70;;
30862;SDS011;17573;55.922;37.540;2023-03-04T09:31:59;12.98;;;6.88;;
30862;SDS011;17573;55.922;37.540;2023-03-04T09:34:25;15.32;;;7.28;;
30862;SDS011;17573;55.922;37.540;2023-03-04T09:36:50;13.55;;;7.28;;
30862;SDS011;17573;55.922;37.540;2023-03-04T09:39:16;8.80;;;6.13;;
30862;SDS011;17573;55.922;37.540;2023-03-04T09:41:43;8.70;;;7.53;;
30862;SDS011;17573;55.922;37.540;2023-03-04T09:46:54;16.75;;;6.93;;
30862;SDS011;17573;55.922;37.540;2023-03-04T09:49:22;12.68;;;7.53;;
30862;SDS011;17573;55.922;37.540;2023-03-04T10:03:03;11.35;;;7.32;;
30862;SDS011;17573;55.922;37.540;2023-03-04T10:05:33;12.50;;;6.97;;
30862;SDS011;17573;55.922;37.540;2023-03-04T10:10:57;6.45;;;5.07;;
30862;SDS011;17573;55.922;37.540;2023-03-04T10:13:27;10.15;;;5.85;;
30862;SDS011;17573;55.922;37.540;2023-03-04T10:15:58;12.18;;;6.57;;
30862;SDS011;17573;55.922;37.540;2023-03-04T10:19:00;9.68;;;6.82;;
30862;SDS011;17573;55.922;37.540;2023-03-04T10:23:51;8.77;;;6.18;;
30862;SDS011;17573;55.922;37.540;2023-03-04T10:26:19;13.07;;;6.32;;
30862;SDS011;17573;55.922;37.540;2023-03-04T10:28:46;9.50;;;5.93;;
30862;SDS011;17573;55.922;37.540;2023-03-04T10:31:32;26.88;;;6.75;;
30862;SDS011;17573;55.922;37.540;2023-03-04T10:34:04;10.95;;;6.95;;
30862;SDS011;17573;55.922;37.540;2023-03-04T10:38:57;8.38;;;6.63;;
30862;SDS011;17573;55.922;37.540;2023-03-04T10:41:28;8.75;;;5.82;;
30862;SDS011;17573;55.922;37.540;2023-03-04T10:44:12;7.15;;;5.38;;
30862;SDS011;17573;55.922;37.540;2023-03-04T10:46:41;7.50;;;5.43;;
30862;SDS011;17573;55.922;37.540;2023-03-04T10:49:09;6.55;;;4.97;;
30862;SDS011;17573;55.922;37.540;2023-03-04T10:51:43;10.60;;;5.93;;
30862;SDS011;17573;55.922;37.540;2023-03-04T10:54:27;8.43;;;5.55;;
30862;SDS011;17573;55.922;37.540;2023-03-04T10:57:14;5.00;;;4.50;;
30862;SDS011;17573;55.922;37.540;2023-03-04T11:02:27;9.05;;;5.47;;
30862;SDS011;17573;55.922;37.540;2023-03-04T11:07:45;8.88;;;5.85;;
30862;SDS011;17573;55.922;37.540;2023-03-04T11:10:55;11.23;;;5.45;;
30862;SDS011;17573;55.922;37.540;2023-03-04T11:13:13;5.00;;;4.50;;
30862;SDS011;17573;55.922;37.540;2023-03-04T11:15:56;8.80;;;5.75;;
30862;SDS011;17573;55.922;37.540;2023-03-04T11:18:34;10.23;;;5.72;;
30862;SDS011;17573;55.922;37.540;2023-03-04T11:21:05;13.82;;;6.43;;
30862;SDS011;17573;55.922;37.540;2023-03-04T11:23:40;6.50;;;5.25;;
30862;SDS011;17573;55.922;37.540;2023-03-04T11:26:13;8.02;;;5.50;;
30862;SDS011;17573;55.922;37.540;2023-03-04T11:29:02;5.15;;;4.65;;
30862;SDS011;17573;55.922;37.540;2023-03-04T11:31:35;9.63;;;6.03;;
30862;SDS011;17573;55.922;37.540;2023-03-04T11:34:07;6.95;;;5.22;;
30862;SDS011;17573;55.922;37.540;2023-03-04T11:44:48;12.30;;;8.00;;
30862;SDS011;17573;55.922;37.540;2023-03-04T11:47:21;8.30;;;6.57;;
30862;SDS011;17573;55.922;37.540;2023-03-04T11:55:20;14.98;;;8.60;;
30862;SDS011;17573;55.922;37.540;2023-03-04T12:09:11;17.13;;;8.00;;
30862;SDS011;17573;55.922;37.540;2023-03-04T12:20:13;14.90;;;9.00;;
30862;SDS011;17573;55.922;37.540;2023-03-04T12:22:45;10.18;;;7.40;;
30862;SDS011;17573;55.922;37.540;2023-03-04T12:33:16;23.23;;;8.38;;
30862;SDS011;17573;55.922;37.540;2023-03-04T12:38:40;19.45;;;8.85;;
30862;SDS011;17573;55.922;37.540;2023-03-04T12:52:16;19.45;;;10.85;;
30862;SDS011;17573;55.922;37.540;2023-03-04T12:54:57;20.30;;;10.55;;
30862;SDS011;17573;55.922;37.540;2023-03-04T12:57:29;19.80;;;10.20;;
30862;SDS011;17573;55.922;37.540;2023-03-04T13:02:52;33.35;;;11.13;;
30862;SDS011;17573;55.922;37.540;2023-03-04T13:14:04;23.60;;;12.70;;
30862;SDS011;17573;55.922;37.540;2023-03-04T13:16:31;23.90;;;11.95;;
30862;SDS011;17573;55.922;37.540;2023-03-04T13:27:49;24.67;;;12.32;;
30862;SDS011;17573;55.922;37.540;2023-03-04T13:32:56;23.38;;;11.82;;
30862;SDS011;17573;55.922;37.540;2023-03-04T13:49:04;22.08;;;9.18;;
30862;SDS011;17573;55.922;37.540;2023-03-04T13:54:44;16.65;;;9.63;;
30862;SDS011;17573;55.922;37.540;2023-03-04T13:59:31;10.88;;;6.32;;
30862;SDS011;17573;55.922;37.540;2023-03-04T14:04:36;11.70;;;7.47;;
30862;SDS011;17573;55.922;37.540;2023-03-04T14:07:17;11.55;;;8.25;;
30862;SDS011;17573;55.922;37.540;2023-03-04T14:12:23;7.97;;;6.75;;
30862;SDS011;17573;55.922;37.540;2023-03-04T14:14:50;16.45;;;8.50;;
30862;SDS011;17573;55.922;37.540;2023-03-04T14:17:18;9.60;;;7.47;;
30862;SDS011;17573;55.922;37.540;2023-03-04T14:19:47;7.90;;;6.70;;
30862;SDS011;17573;55.922;37.540;2023-03-04T14:27:30;11.80;;;7.13;;
30862;SDS011;17573;55.922;37.540;2023-03-04T14:30:01;10.23;;;8.25;;
30862;SDS011;17573;55.922;37.540;2023-03-04T14:32:29;10.80;;;7.85;;
30862;SDS011;17573;55.922;37.540;2023-03-04T14:35:05;18.95;;;8.10;;
30862;SDS011;17573;55.922;37.540;2023-03-04T14:37:42;19.70;;;8.85;;
30862;SDS011;17573;55.922;37.540;2023-03-04T14:40:38;30.45;;;11.23;;
30862;SDS011;17573;55.922;37.540;2023-03-04T14:43:13;13.77;;;9.70;;
30862;SDS011;17573;55.922;37.540;2023-03-04T14:45:41;12.80;;;8.75;;
30862;SDS011;17573;55.922;37.540;2023-03-04T14:48:07;8.75;;;7.93;;
30862;SDS011;17573;55.922;37.540;2023-03-04T14:50:34;12.07;;;9.02;;
30862;SDS011;17573;55.922;37.540;2023-03-04T14:53:08;19.67;;;9.85;;
30862;SDS011;17573;55.922;37.540;2023-03-04T14:55:39;15.68;;;9.73;;
30862;SDS011;17573;55.922;37.540;2023-03-04T14:58:21;10.98;;;8.50;;
30862;SDS011;17573;55.922;37.540;2023-03-04T15:03:48;15.52;;;9.38;;
30862;SDS011;17573;55.922;37.540;2023-03-04T15:06:19;23.77;;;10.38;;
30862;SDS011;17573;55.922;37.540;2023-03-04T15:08:55;20.17;;;10.32;;
30862;SDS011;17573;55.922;37.540;2023-03-04T15:11:30;18.13;;;10.77;;
30862;SDS011;17573;55.922;37.540;2023-03-04T15:13:57;17.60;;;10.30;;
30862;SDS011;17573;55.922;37.540;2023-03-04T15:16:26;14.52;;;10.70;;
30862;SDS011;17573;55.922;37.540;2023-03-04T15:21:36;27.50;;;11.73;;
30862;SDS011;17573;55.922;37.540;2023-03-04T15:24:05;14.27;;;10.45;;
30862;SDS011;17573;55.922;37.540;2023-03-04T15:26:36;19.70;;;11.60;;
30862;SDS011;17573;55.922;37.540;2023-03-04T15:29:11;21.60;;;13.75;;
30862;SDS011;17573;55.922;37.540;2023-03-04T15:31:39;21.58;;;12.82;;
30862;SDS011;17573;55.922;37.540;2023-03-04T15:34:12;12.93;;;9.82;;
30862;SDS011;17573;55.922;37.540;2023-03-04T15:36:39;18.67;;;11.48;;
30862;SDS011;17573;55.922;37.540;2023-03-04T15:39:08;23.38;;;11.45;;
30862;SDS011;17573;55.922;37.540;2023-03-04T15:41:35;16.67;;;10.55;;
30862;SDS011;17573;55.922;37.540;2023-03-04T15:44:01;18.92;;;11.90;;
30862;SDS011;17573;55.922;37.540;2023-03-04T15:46:28;19.65;;;12.55;;
30862;SDS011;17573;55.922;37.540;2023-03-04T15:48:53;25.70;;;13.20;;
30862;SDS011;17573;55.922;37.540;2023-03-04T15:51:20;18.00;;;11.52;;
30862;SDS011;17573;55.922;37.540;2023-03-04T15:53:53;17.35;;;10.90;;
30862;SDS011;17573;55.922;37.540;2023-03-04T15:56:21;19.73;;;11.77;;
30862;SDS011;17573;55.922;37.540;2023-03-04T15:58:53;18.63;;;12.18;;
30862;SDS011;17573;55.922;37.540;2023-03-04T16:01:23;20.60;;;12.75;;
30862;SDS011;17573;55.922;37.540;2023-03-04T16:03:50;16.80;;;11.70;;
30862;SDS011;17573;55.922;37.540;2023-03-04T16:06:17;18.50;;;13.05;;
30862;SDS011;17573;55.922;37.540;2023-03-04T16:08:45;21.20;;;12.75;;
30862;SDS011;17573;55.922;37.540;2023-03-04T16:11:15;21.58;;;13.85;;
30862;SDS011;17573;55.922;37.540;2023-03-04T16:13:43;25.25;;;11.20;;
30862;SDS011;17573;55.922;37.540;2023-03-04T16:16:13;20.23;;;13.18;;
30862;SDS011;17573;55.922;37.540;2023-03-04T16:18:40;27.08;;;13.25;;
30862;SDS011;17573;55.922;37.540;2023-03-04T16:21:07;21.13;;;13.18;;
30862;SDS011;17573;55.922;37.540;2023-03-04T16:23:45;18.00;;;11.80;;
30862;SDS011;17573;55.922;37.540;2023-03-04T16:26:17;24.50;;;13.68;;
30862;SDS011;17573;55.922;37.540;2023-03-04T16:28:43;19.73;;;12.38;;
30862;SDS011;17573;55.922;37.540;2023-03-04T16:31:10;26.20;;;15.77;;
30862;SDS011;17573;55.922;37.540;2023-03-04T16:33:36;22.10;;;15.45;;
30862;SDS011;17573;55.922;37.540;2023-03-04T16:36:35;20.08;;;12.55;;
30862;SDS011;17573;55.922;37.540;2023-03-04T16:38:54;22.13;;;13.88;;
30862;SDS011;17573;55.922;37.540;2023-03-04T16:41:23;20.52;;;10.82;;
30862;SDS011;17573;55.922;37.540;2023-03-04T16:43:51;19.98;;;13.13;;
30862;SDS011;17573;55.922;37.540;2023-03-04T16:46:17;23.02;;;14.38;;
30862;SDS011;17573;55.922;37.540;2023-03-04T16:48:42;34.35;;;14.43;;
30862;SDS011;17573;55.922;37.540;2023-03-04T16:51:12;21.65;;;12.88;;
30862;SDS011;17573;55.922;37.540;2023-03-04T16:53:40;22.42;;;12.60;;
30862;SDS011;17573;55.922;37.540;2023-03-04T16:56:11;22.13;;;14.27;;